createdAt,value
2018-07-03T00:02:20.372Z,101149.19
2018-07-03T00:04:47.436Z,101151.78
2018-07-03T00:07:14.519Z,101151.64
2018-07-03T00:09:41.577Z,101155.41
2018-07-03T00:12:08.645Z,101155.75
2018-07-03T00:14:35.707Z,101158.28
2018-07-03T00:17:08.522Z,101152.58
2018-07-03T00:19:35.606Z,101151.47
2018-07-03T00:22:02.696Z,101151.80
2018-07-03T00:24:29.709Z,101150.99
2018-07-03T00:26:56.745Z,101151.30
2018-07-03T00:29:23.781Z,101152.27
2018-07-03T00:31:50.953Z,101151.14
2018-07-03T00:34:18.229Z,101147.98
2018-07-03T00:36:45.252Z,101150.22
2018-07-03T00:39:12.323Z,101148.13
2018-07-03T00:41:39.351Z,101145.44
2018-07-03T00:44:06.420Z,101143.41
2018-07-03T00:46:33.426Z,101142.91
2018-07-03T00:49:00.466Z,101145.90
2018-07-03T00:51:27.515Z,101142.44
2018-07-03T00:53:54.560Z,101144.94
2018-07-03T00:56:21.608Z,101143.27
2018-07-03T00:58:48.623Z,101136.19
2018-07-03T01:01:15.685Z,101142.67
2018-07-03T01:03:42.719Z,101139.41
2018-07-03T01:06:09.755Z,101143.23
2018-07-03T01:08:36.770Z,101137.72
2018-07-03T01:11:03.808Z,101140.30
2018-07-03T01:13:30.825Z,101136.57
2018-07-03T01:15:57.864Z,101138.12
2018-07-03T01:18:24.936Z,101138.70
2018-07-03T01:20:51.959Z,101136.28
2018-07-03T01:23:19.146Z,101135.47
2018-07-03T01:25:46.192Z,101139.67
2018-07-03T01:28:13.211Z,101133.98
2018-07-03T01:30:40.251Z,101133.98
2018-07-03T01:33:07.281Z,101128.77
2018-07-03T01:35:34.296Z,101127.80
2018-07-03T01:38:01.329Z,101132.86
2018-07-03T01:40:28.381Z,101129.23
2018-07-03T01:42:55.645Z,101133.14
2018-07-03T01:45:22.694Z,101131.05
2018-07-03T01:47:49.740Z,101129.31
2018-07-03T01:50:16.919Z,101126.57
2018-07-03T01:52:43.953Z,101127.33
2018-07-03T01:55:10.964Z,101127.86
2018-07-03T01:57:37.986Z,101126.88
2018-07-03T02:00:05.094Z,101122.07
2018-07-03T02:02:32.131Z,101127.19
2018-07-03T02:04:59.481Z,101123.83
2018-07-03T02:07:26.523Z,101122.12
2018-07-03T02:09:53.558Z,101117.19
2018-07-03T02:12:20.622Z,101118.63
2018-07-03T02:14:47.642Z,101111.98
2018-07-03T02:17:14.706Z,101110.31
2018-07-03T02:19:41.725Z,101112.31
2018-07-03T02:22:08.770Z,101106.60
2018-07-03T02:24:35.785Z,101097.42
2018-07-03T02:27:02.857Z,101099.13
2018-07-03T02:29:29.922Z,101100.03
2018-07-03T02:31:56.949Z,101099.21
2018-07-03T02:34:23.959Z,101104.16
2018-07-03T02:36:50.985Z,101103.91
2018-07-03T02:39:18.029Z,101105.28
2018-07-03T02:41:45.385Z,101103.09
2018-07-03T02:44:12.413Z,101102.80
2018-07-03T02:46:39.428Z,101102.54
2018-07-03T02:49:06.472Z,101102.00
2018-07-03T02:51:33.521Z,101099.80
2018-07-03T02:54:00.551Z,101095.73
2018-07-03T02:56:27.582Z,101100.05
2018-07-03T02:58:54.689Z,101096.39
2018-07-03T03:01:21.656Z,101096.19
2018-07-03T03:03:48.652Z,101098.05
2018-07-03T03:06:15.713Z,101098.84
2018-07-03T03:08:42.738Z,101098.36
2018-07-03T03:11:09.769Z,101090.86
2018-07-03T03:13:36.801Z,101096.77
2018-07-03T03:16:03.965Z,101099.07
2018-07-03T03:18:30.997Z,101104.59
2018-07-03T03:20:58.033Z,101099.61
2018-07-03T03:23:25.221Z,101095.83
2018-07-03T03:25:52.229Z,101104.36
2018-07-03T03:28:19.263Z,101096.91
2018-07-03T03:30:46.336Z,101095.89
2018-07-03T03:33:13.335Z,101097.86
2018-07-03T03:35:40.374Z,101101.09
2018-07-03T03:38:07.423Z,101099.72
2018-07-03T03:40:34.470Z,101095.40
2018-07-03T03:43:01.480Z,101098.55
2018-07-03T03:45:28.522Z,101097.95
2018-07-03T03:47:55.600Z,101099.30
2018-07-03T03:50:22.664Z,101091.20
2018-07-03T03:52:49.737Z,101093.01
2018-07-03T03:55:16.762Z,101097.18
2018-07-03T03:57:43.826Z,101099.59
2018-07-03T04:00:10.976Z,101092.06
2018-07-03T04:02:38.248Z,101092.02
2018-07-03T04:05:05.454Z,101091.47
2018-07-03T04:07:32.555Z,101090.48
2018-07-03T04:09:59.574Z,101090.78
2018-07-03T04:12:26.620Z,101092.27
2018-07-03T04:14:53.644Z,101089.50
2018-07-03T04:17:20.691Z,101091.69
2018-07-03T04:19:47.983Z,101098.16
2018-07-03T04:22:14.979Z,101101.43
2018-07-03T04:24:42.122Z,101107.59
2018-07-03T04:27:09.172Z,101105.78
2018-07-03T04:29:36.242Z,101107.20
2018-07-03T04:32:03.330Z,101109.72
2018-07-03T04:34:30.365Z,101109.16
2018-07-03T04:36:57.386Z,101104.95
2018-07-03T04:39:24.447Z,101108.52
2018-07-03T04:41:51.702Z,101114.95
2018-07-03T04:44:18.723Z,101124.61
2018-07-03T04:46:45.912Z,101117.34
2018-07-03T04:49:12.959Z,101111.98
2018-07-03T04:51:39.988Z,101116.24
2018-07-03T04:54:07.024Z,101111.42
2018-07-03T04:56:34.033Z,101112.11
2018-07-03T04:59:01.457Z,101117.50
2018-07-03T05:01:28.518Z,101110.38
2018-07-03T05:03:55.590Z,101114.52
2018-07-03T05:06:22.603Z,101117.81
2018-07-03T05:08:49.639Z,101113.38
2018-07-03T05:11:16.909Z,101112.91
2018-07-03T05:13:43.945Z,101120.66
2018-07-03T05:16:11.001Z,101114.66
2018-07-03T05:18:38.038Z,101110.36
2018-07-03T05:21:05.210Z,101113.84
2018-07-03T05:23:32.300Z,101111.69
2018-07-03T05:25:59.332Z,101110.52
2018-07-03T05:28:26.609Z,101111.91
2018-07-03T05:30:53.685Z,101113.27
2018-07-03T05:33:20.692Z,101114.95
2018-07-03T05:35:47.718Z,101115.20
2018-07-03T05:38:14.784Z,101111.84
2018-07-03T05:40:41.814Z,101120.48
2018-07-03T05:43:09.224Z,101124.06
2018-07-03T05:45:36.290Z,101127.31
2018-07-03T05:48:03.345Z,101136.88
2018-07-03T05:50:30.373Z,101126.85
2018-07-03T05:52:57.410Z,101132.58
2018-07-03T05:55:24.436Z,101130.35
2018-07-03T05:57:51.496Z,101126.55
2018-07-03T06:00:18.571Z,101120.58
2018-07-03T06:02:45.650Z,101128.52
2018-07-03T06:05:12.703Z,101128.05
2018-07-03T06:07:39.774Z,101127.88
2018-07-03T06:10:06.852Z,101128.77
2018-07-03T06:12:33.872Z,101128.14
2018-07-03T06:15:01.055Z,101126.50
2018-07-03T06:17:27.965Z,101122.19
2018-07-03T06:19:55.033Z,101125.78
2018-07-03T06:22:22.037Z,101130.10
2018-07-03T06:24:49.103Z,101130.55
2018-07-03T06:27:16.195Z,101132.50
2018-07-03T06:29:43.592Z,101131.92
2018-07-03T06:32:10.662Z,101133.97
2018-07-03T06:34:37.706Z,101132.70
2018-07-03T06:37:04.731Z,101139.58
2018-07-03T06:39:31.779Z,101138.63
2018-07-03T06:41:58.796Z,101138.63
2018-07-03T06:44:26.005Z,101133.92
2018-07-03T06:46:53.049Z,101139.72
2018-07-03T06:49:20.128Z,101136.89
2018-07-03T06:51:47.201Z,101135.30
2018-07-03T06:54:14.210Z,101142.21
2018-07-03T06:56:41.225Z,101131.08
2018-07-03T06:59:08.302Z,101135.56
2018-07-03T07:01:35.300Z,101131.87
2018-07-03T07:04:02.335Z,101134.12
2018-07-03T07:06:29.354Z,101139.38
2018-07-03T07:08:56.665Z,101133.96
2018-07-03T07:11:23.590Z,101135.44
2018-07-03T07:13:50.937Z,101138.47
2018-07-03T07:16:18.020Z,101143.50
2018-07-03T07:18:45.047Z,101141.92
2018-07-03T07:21:12.053Z,101146.49
2018-07-03T07:23:39.130Z,101147.11
2018-07-03T07:26:06.253Z,101141.12
2018-07-03T07:28:33.363Z,101147.18
2018-07-03T07:31:00.643Z,101148.34
2018-07-03T07:33:27.669Z,101137.94
2018-07-03T07:35:54.747Z,101143.06
2018-07-03T07:38:21.748Z,101146.31
2018-07-03T07:40:48.784Z,101155.05
2018-07-03T07:43:15.822Z,101148.07
2018-07-03T07:45:42.889Z,101151.89
2018-07-03T07:48:09.942Z,101149.14
2018-07-03T07:50:36.964Z,101144.33
2018-07-03T07:53:04.015Z,101146.97
2018-07-03T07:55:31.068Z,101146.77
2018-07-03T07:57:58.110Z,101148.62
2018-07-03T08:00:25.149Z,101151.59
2018-07-03T08:02:52.508Z,101145.77
2018-07-03T08:05:19.553Z,101144.15
2018-07-03T08:07:46.587Z,101148.10
2018-07-03T08:10:13.892Z,101143.93
2018-07-03T08:12:40.912Z,101136.79
2018-07-03T08:15:07.962Z,101140.42
2018-07-03T08:17:35.014Z,101140.73
2018-07-03T08:20:02.077Z,101141.70
2018-07-03T08:22:29.107Z,101136.91
2018-07-03T08:24:56.141Z,101137.23
2018-07-03T08:27:23.180Z,101137.47
2018-07-03T08:29:50.571Z,101136.31
2018-07-03T08:32:17.617Z,101146.95
2018-07-03T08:34:44.675Z,101147.39
2018-07-03T08:37:11.721Z,101150.31
2018-07-03T08:39:38.752Z,101143.34
2018-07-03T08:42:05.837Z,101142.34
2018-07-03T08:44:32.870Z,101139.65
2018-07-03T08:46:59.909Z,101143.62
2018-07-03T08:49:26.958Z,101146.30
2018-07-03T08:51:54.018Z,101139.11
2018-07-03T08:54:21.080Z,101142.28
2018-07-03T08:56:48.117Z,101139.44
2018-07-03T08:59:15.179Z,101141.73
2018-07-03T09:01:42.242Z,101146.27
2018-07-03T09:04:09.289Z,101141.37
2018-07-03T09:06:36.316Z,101139.25
2018-07-03T09:09:06.689Z,101137.86
2018-07-03T09:11:33.838Z,101129.71
2018-07-03T09:14:00.873Z,101126.92
2018-07-03T09:16:27.935Z,101124.44
2018-07-03T09:18:55.081Z,101131.64
2018-07-03T09:21:22.320Z,101124.30
2018-07-03T09:23:49.371Z,101131.06
2018-07-03T09:26:16.425Z,101123.11
2018-07-03T09:28:43.448Z,101123.01
2018-07-03T09:31:17.458Z,101116.95
2018-07-03T09:33:44.468Z,101121.46
2018-07-03T09:36:11.504Z,101120.70
2018-07-03T09:38:38.534Z,101115.95
2018-07-03T09:41:06.001Z,101112.14
2018-07-03T09:43:33.026Z,101111.87
2018-07-03T09:46:00.077Z,101109.81
2018-07-03T09:48:27.093Z,101106.08
2018-07-03T09:50:54.104Z,101108.78
2018-07-03T09:53:21.128Z,101112.36
2018-07-03T09:55:48.138Z,101106.54
2018-07-03T09:58:15.201Z,101114.75
2018-07-03T10:00:47.915Z,101111.03
2018-07-03T10:03:14.923Z,101119.79
2018-07-03T10:05:41.979Z,101128.72
2018-07-03T10:08:09.005Z,101129.31
2018-07-03T10:10:36.041Z,101115.05
2018-07-03T10:13:03.147Z,101125.73
2018-07-03T10:15:30.195Z,101133.66
2018-07-03T10:17:57.202Z,101131.70
2018-07-03T10:20:24.209Z,101125.87
2018-07-03T10:22:51.286Z,101123.59
2018-07-03T10:25:18.345Z,101124.38
2018-07-03T10:27:45.421Z,101121.10
2018-07-03T10:30:12.481Z,101123.33
2018-07-03T10:32:39.504Z,101117.41
2018-07-03T10:35:06.629Z,101116.58
2018-07-03T10:37:33.677Z,101113.66
2018-07-03T10:40:00.708Z,101112.67
2018-07-03T10:42:27.750Z,101116.91
2018-07-03T10:44:54.870Z,101118.98
2018-07-03T10:47:21.882Z,101121.86
2018-07-03T10:49:48.948Z,101113.28
2018-07-03T10:52:16.097Z,101122.06
2018-07-03T10:54:43.080Z,101111.40
2018-07-03T10:57:10.116Z,101105.52
2018-07-03T10:59:37.195Z,101106.97
2018-07-03T11:02:04.231Z,101111.35
2018-07-03T11:04:31.268Z,101108.89
2018-07-03T11:06:58.284Z,101107.11
2018-07-03T11:09:25.322Z,101101.91
2018-07-03T11:11:52.338Z,101098.16
2018-07-03T11:14:19.379Z,101113.33
2018-07-03T11:16:46.409Z,101103.67
2018-07-03T11:19:13.440Z,101101.21
2018-07-03T11:21:40.456Z,101100.97
2018-07-03T11:24:07.555Z,101103.92
2018-07-03T11:26:34.615Z,101095.32
2018-07-03T11:29:01.683Z,101088.09
2018-07-03T11:31:28.671Z,101094.25
2018-07-03T11:33:55.999Z,101086.76
2018-07-03T11:36:23.030Z,101087.08
2018-07-03T11:38:50.103Z,101089.48
2018-07-03T11:41:17.144Z,101078.30
2018-07-03T11:43:44.154Z,101080.67
2018-07-03T11:46:11.245Z,101073.87
2018-07-03T11:48:38.316Z,101075.80
2018-07-03T11:51:05.340Z,101075.53
2018-07-03T11:53:32.400Z,101079.59
2018-07-03T11:55:59.438Z,101073.41
2018-07-03T11:58:26.454Z,101071.49
2018-07-03T12:00:53.490Z,101080.23
2018-07-03T12:03:20.623Z,101079.10
2018-07-03T12:05:47.645Z,101074.88
2018-07-03T12:08:14.725Z,101070.98
2018-07-03T12:10:41.844Z,101078.44
2018-07-03T12:13:09.193Z,101077.97
2018-07-03T12:15:36.214Z,101074.84
2018-07-03T12:18:03.319Z,101075.20
2018-07-03T12:20:30.369Z,101068.34
2018-07-03T12:22:57.468Z,101065.05
2018-07-03T12:25:24.503Z,101073.94
2018-07-03T12:27:51.613Z,101065.18
2018-07-03T12:30:18.653Z,101060.27
2018-07-03T12:32:45.673Z,101055.81
2018-07-03T12:35:12.764Z,101052.33
2018-07-03T12:37:39.789Z,101051.95
2018-07-03T12:40:06.853Z,101042.91
2018-07-03T12:42:34.241Z,101055.72
2018-07-03T12:45:01.496Z,101060.69
2018-07-03T12:47:28.500Z,101058.47
2018-07-03T12:49:55.617Z,101059.03
2018-07-03T12:52:22.695Z,101041.52
2018-07-03T12:54:49.717Z,101062.08
2018-07-03T12:57:16.751Z,101056.88
2018-07-03T12:59:43.815Z,101056.53
2018-07-03T13:02:10.810Z,101058.27
2018-07-03T13:04:37.854Z,101055.23
2018-07-03T13:07:04.923Z,101064.11
2018-07-03T13:09:31.946Z,101061.26
2018-07-03T13:11:58.992Z,101062.93
2018-07-03T13:14:26.001Z,101062.95
2018-07-03T13:16:53.649Z,101061.67
2018-07-03T13:19:20.686Z,101063.38
2018-07-03T13:21:47.698Z,101061.25
2018-07-03T13:24:14.706Z,101061.27
2018-07-03T13:26:41.790Z,101056.55
2018-07-03T13:29:09.168Z,101057.00
2018-07-03T13:31:36.257Z,101057.84
2018-07-03T13:34:03.269Z,101060.39
2018-07-03T13:36:30.357Z,101062.95
2018-07-03T13:38:57.340Z,101064.69
2018-07-03T13:41:24.706Z,101057.81
2018-07-03T13:43:51.763Z,101059.55
2018-07-03T13:46:19.137Z,101056.09
2018-07-03T13:48:46.230Z,101052.97
2018-07-03T13:51:13.277Z,101047.48
2018-07-03T13:53:40.312Z,101041.52
2018-07-03T13:56:07.396Z,101047.47
2018-07-03T13:58:34.419Z,101044.53
2018-07-03T14:01:01.457Z,101054.38
2018-07-03T14:03:28.485Z,101047.53
2018-07-03T14:05:56.002Z,101043.08
2018-07-03T14:08:23.065Z,101045.80
2018-07-03T14:10:50.116Z,101047.37
2018-07-03T14:13:17.160Z,101047.84
2018-07-03T14:15:44.183Z,101045.80
2018-07-03T14:18:11.213Z,101045.31
2018-07-03T14:20:38.223Z,101044.41
2018-07-03T14:23:05.274Z,101043.53
2018-07-03T14:25:32.369Z,101041.70
2018-07-03T14:27:59.402Z,101052.62
2018-07-03T14:30:26.539Z,101043.98
2018-07-03T14:32:53.600Z,101044.07
2018-07-03T14:35:20.618Z,101045.33
2018-07-03T14:37:47.651Z,101034.14
2018-07-03T14:42:48.812Z,101029.92
2018-07-03T14:45:15.904Z,101036.38
2018-07-03T14:47:42.925Z,101032.90
2018-07-03T14:50:10.204Z,101025.55
2018-07-03T14:52:37.569Z,101030.34
2018-07-03T14:55:04.618Z,101035.06
2018-07-03T14:57:31.680Z,101030.77
2018-07-03T14:59:58.706Z,101031.19
2018-07-03T15:02:25.913Z,101027.69
2018-07-03T15:04:52.933Z,101030.77
2018-07-03T15:23:55.303Z,101025.33
2018-07-03T15:26:22.321Z,101029.92
2018-07-03T15:28:49.345Z,101025.36
2018-07-03T15:31:16.366Z,101021.61
2018-07-03T15:33:43.414Z,101013.86
2018-07-03T15:36:10.476Z,101022.78
2018-07-03T15:38:37.509Z,101027.04
2018-07-03T15:41:04.649Z,101022.96
2018-07-03T15:43:31.675Z,101019.33
2018-07-03T15:45:58.736Z,101020.30
2018-07-03T15:48:25.815Z,101021.83
2018-07-03T15:50:52.817Z,101015.50
2018-07-03T15:53:19.961Z,101019.25
2018-07-03T15:55:47.033Z,101015.19
2018-07-03T15:58:14.057Z,101018.55
2018-07-03T16:00:41.154Z,101014.17
2018-07-03T16:03:19.964Z,101006.08
2018-07-03T16:05:59.025Z,101013.14
2018-07-03T16:08:38.373Z,101016.00
2018-07-03T16:11:05.441Z,101013.78
2018-07-03T16:13:32.441Z,101012.01
2018-07-03T16:15:59.772Z,101011.97
2018-07-03T16:18:27.301Z,101009.80
2018-07-03T16:20:54.356Z,101010.23
2018-07-03T16:23:21.393Z,101013.63
2018-07-03T16:25:48.414Z,101010.40
2018-07-03T16:28:15.446Z,100999.87
2018-07-03T16:30:42.475Z,101007.24
2018-07-03T16:33:09.557Z,101004.68
2018-07-03T16:35:36.537Z,101002.52
2018-07-03T16:38:03.564Z,100996.47
2018-07-03T16:40:30.642Z,100999.97
2018-07-03T16:42:57.670Z,100986.47
2018-07-03T16:45:24.784Z,100991.89
2018-07-03T16:47:51.804Z,100989.36
2018-07-03T16:50:18.836Z,100989.05
2018-07-03T16:52:45.844Z,100991.41
2018-07-03T16:55:12.916Z,100984.30
2018-07-03T16:57:39.949Z,100978.19
2018-07-03T17:00:06.981Z,100983.05
2018-07-03T17:02:33.996Z,100981.70
2018-07-03T17:05:01.040Z,100974.62
2018-07-03T17:07:28.094Z,100976.64
2018-07-03T17:09:55.168Z,100984.28
2018-07-03T17:12:22.224Z,100989.98
2018-07-03T17:14:49.261Z,100989.70
2018-07-03T17:17:16.329Z,100979.59
2018-07-03T17:19:43.415Z,100986.10
2018-07-03T17:22:10.401Z,100983.10
2018-07-03T17:24:37.437Z,100984.88
2018-07-03T17:27:05.420Z,100980.92
2018-07-03T17:29:33.098Z,100988.53
2018-07-03T17:32:00.130Z,100986.07
2018-07-03T17:34:27.231Z,100987.41
2018-07-03T17:36:54.317Z,100984.54
2018-07-03T17:39:21.996Z,100984.18
2018-07-03T17:42:00.490Z,100983.00
2018-07-03T17:45:40.443Z,100987.09
2018-07-03T17:48:08.659Z,100980.23
2018-07-03T17:50:36.012Z,100976.79
2018-07-03T17:53:03.134Z,100979.50
2018-07-03T17:55:30.713Z,100971.08
2018-07-03T17:57:58.691Z,100968.52
2018-07-03T18:00:25.836Z,100969.45
2018-07-03T18:02:53.167Z,100973.05
2018-07-03T18:05:20.175Z,100974.99
2018-07-03T18:07:47.590Z,100975.67
2018-07-03T18:10:14.621Z,100981.63
2018-07-03T18:12:41.658Z,100983.19
2018-07-03T18:15:08.708Z,100982.47
2018-07-03T18:17:35.733Z,100984.60
2018-07-03T18:20:02.850Z,100976.84
2018-07-03T18:22:29.873Z,100974.34
2018-07-03T18:24:56.895Z,100970.02
2018-07-03T18:27:23.984Z,100965.97
2018-07-03T18:29:51.050Z,100967.51
2018-07-03T18:32:18.062Z,100969.44
2018-07-03T18:34:45.201Z,100968.61
2018-07-03T18:37:12.189Z,100966.16
2018-07-03T18:39:39.244Z,100967.61
2018-07-03T18:42:06.462Z,100972.59
2018-07-03T18:44:33.472Z,100969.09
2018-07-03T18:47:00.500Z,100973.86
2018-07-03T18:49:27.569Z,100980.73
2018-07-03T18:51:54.704Z,100977.25
2018-07-03T18:54:21.762Z,100974.52
2018-07-03T18:56:48.802Z,100977.45
2018-07-03T18:59:15.828Z,100975.66
2018-07-03T19:01:42.873Z,100979.42
2018-07-03T19:04:10.188Z,100980.77
2018-07-03T19:06:37.186Z,100984.25
2018-07-03T19:09:05.700Z,100981.61
2018-07-03T19:11:32.758Z,100976.31
2018-07-03T19:13:59.784Z,100970.69
2018-07-03T19:16:26.839Z,100972.78
2018-07-03T19:18:53.854Z,100977.22
2018-07-03T19:21:20.907Z,100976.34
2018-07-03T19:23:47.936Z,100979.45
2018-07-03T19:26:15.000Z,100979.86
2018-07-03T19:28:42.117Z,100987.89
2018-07-03T19:31:09.127Z,100985.41
2018-07-03T19:33:36.436Z,100985.56
2018-07-03T19:36:03.748Z,100987.23
2018-07-03T19:38:30.732Z,100992.84
2018-07-03T19:40:57.927Z,100994.39
2018-07-03T19:43:27.128Z,100992.65
2018-07-03T19:45:54.695Z,100987.06
2018-07-03T19:48:21.735Z,101000.13
2018-07-03T19:50:50.005Z,100999.59
2018-07-03T19:53:17.041Z,100994.00
2018-07-03T19:55:44.519Z,100990.77
2018-07-03T19:58:11.562Z,100996.91
2018-07-03T20:00:38.609Z,100996.63
2018-07-03T20:03:05.782Z,100993.32
2018-07-03T20:05:33.144Z,100994.55
2018-07-03T20:08:00.165Z,100992.86
2018-07-03T20:10:27.272Z,100992.08
2018-07-03T20:12:54.328Z,100990.81
2018-07-03T20:15:21.369Z,100994.80
2018-07-03T20:17:48.527Z,100986.89
2018-07-03T20:20:15.561Z,100987.05
2018-07-03T20:22:42.597Z,100987.02
2018-07-03T20:25:09.682Z,100993.22
2018-07-03T20:27:36.725Z,100992.64
2018-07-03T20:30:03.982Z,100999.31
2018-07-03T20:32:31.015Z,100997.32
2018-07-03T20:34:58.045Z,100997.32
2018-07-03T20:37:25.126Z,100993.34
2018-07-03T20:39:52.163Z,100996.79
2018-07-03T20:42:19.446Z,101002.54
2018-07-03T20:44:46.464Z,101002.99
2018-07-03T20:47:13.514Z,100999.55
2018-07-03T20:49:40.572Z,100997.28
2018-07-03T20:52:07.614Z,101003.66
2018-07-03T20:54:34.652Z,100997.45
2018-07-03T20:57:01.737Z,100999.98
2018-07-03T20:59:28.732Z,100999.98
2018-07-03T21:01:55.795Z,100998.79
2018-07-03T21:04:22.902Z,101000.98
2018-07-03T21:06:49.872Z,101003.98
2018-07-03T21:09:16.927Z,101004.34
2018-07-03T21:11:44.065Z,101005.09
2018-07-03T21:14:11.138Z,101001.00
2018-07-03T21:16:38.171Z,100997.98
2018-07-03T21:19:05.181Z,101009.48
2018-07-03T21:21:32.214Z,101011.28
2018-07-03T21:23:59.311Z,101009.75
2018-07-03T21:26:26.309Z,101003.33
2018-07-03T21:28:53.315Z,101003.59
2018-07-03T21:31:20.351Z,101005.91
2018-07-03T21:33:47.436Z,101000.09
2018-07-03T21:36:14.458Z,101003.56
2018-07-03T21:38:41.527Z,101005.09
2018-07-03T21:41:08.512Z,100995.14
2018-07-03T21:43:35.570Z,100999.13
2018-07-03T21:46:02.582Z,100998.94
2018-07-03T21:48:29.607Z,100992.46
2018-07-03T21:50:56.651Z,100986.77
2018-07-03T21:53:23.670Z,100990.77
2018-07-03T21:55:50.677Z,100993.42
2018-07-03T21:58:17.710Z,100992.84
2018-07-03T22:00:44.746Z,100992.00
2018-07-03T22:03:11.866Z,100988.36
2018-07-03T22:05:39.679Z,100987.35
2018-07-03T22:08:06.719Z,100983.38
2018-07-03T22:10:33.948Z,100985.34
2018-07-03T22:13:01.205Z,100987.11
2018-07-03T22:15:28.261Z,100985.28
2018-07-03T22:17:55.361Z,100985.31
2018-07-03T22:20:22.404Z,100987.16
2018-07-03T22:22:49.706Z,100986.30
2018-07-03T22:25:16.725Z,100986.59
2018-07-03T22:27:43.742Z,100986.13
2018-07-03T22:30:10.941Z,100981.63
2018-07-03T22:32:37.960Z,100983.03
2018-07-03T22:35:04.994Z,100981.93
2018-07-03T22:37:32.015Z,100979.47
2018-07-03T22:39:59.033Z,100976.14
2018-07-03T22:42:32.984Z,100976.80
2018-07-03T22:44:59.985Z,100981.44
2018-07-03T22:47:27.022Z,100983.88
2018-07-03T22:49:54.064Z,100981.75
2018-07-03T22:52:21.083Z,100978.98
2018-07-03T22:54:48.105Z,100980.10
2018-07-03T22:57:15.114Z,100983.41
2018-07-03T22:59:42.163Z,100984.11
2018-07-03T23:02:09.517Z,100986.31
2018-07-03T23:04:36.529Z,100981.03
2018-07-03T23:07:03.537Z,100974.16
2018-07-03T23:09:30.562Z,100981.40
2018-07-03T23:11:57.567Z,100976.18
2018-07-03T23:14:24.613Z,100979.41
2018-07-03T23:16:51.665Z,100978.60
2018-07-03T23:19:18.677Z,100974.18
2018-07-03T23:21:45.739Z,100974.98
2018-07-03T23:24:13.040Z,100975.25
2018-07-03T23:26:40.044Z,100976.58
2018-07-03T23:29:07.071Z,100973.48
2018-07-03T23:31:34.104Z,100970.10
2018-07-03T23:34:01.126Z,100972.69
2018-07-03T23:36:28.186Z,100969.64
2018-07-03T23:38:55.219Z,100967.45
2018-07-03T23:41:22.215Z,100970.17
2018-07-03T23:43:49.271Z,100966.61
2018-07-03T23:46:27.741Z,100964.94
2018-07-03T23:49:06.347Z,100962.64
2018-07-03T23:51:45.012Z,100961.86
2018-07-03T23:54:23.613Z,100951.77
2018-07-03T23:57:02.256Z,100958.63
2018-07-03T23:59:40.891Z,100948.85
